sensor_id;sensor_type;location;lat;lon;timestamp;temperature;humidity
19152;DHT22;9708;53.114;9.388;2022-12-29T03:43:37;10.50;99.90
19152;DHT22;9708;53.114;9.388;2022-12-29T03:46:04;10.50;99.90
19152;DHT22;9708;53.114;9.388;2022-12-29T03:48:31;10.60;99.90
19152;DHT22;9708;53.114;9.388;2022-12-29T03:50:58;10.60;99.90
19152;DHT22;9708;53.114;9.388;2022-12-29T03:53:25;10.50;99.90
19152;DHT22;9708;53.114;9.388;2022-12-29T03:55:52;10.60;99.90
19152;DHT22;9708;53.114;9.388;2022-12-29T03:58:18;10.60;99.90
19152;DHT22;9708;53.114;9.388;2022-12-29T04:00:46;10.60;99.90
19152;DHT22;9708;53.114;9.388;2022-12-29T04:03:13;10.50;99.90
19152;DHT22;9708;53.114;9.388;2022-12-29T04:05:40;10.50;99.90
19152;DHT22;9708;53.114;9.388;2022-12-29T04:08:06;10.50;99.90
19152;DHT22;9708;53.114;9.388;2022-12-29T04:10:33;10.40;99.90
19152;DHT22;9708;53.114;9.388;2022-12-29T04:13:00;10.40;99.90
19152;DHT22;9708;53.114;9.388;2022-12-29T04:15:27;10.30;99.90
19152;DHT22;9708;53.114;9.388;2022-12-29T04:17:55;10.30;99.90
19152;DHT22;9708;53.114;9.388;2022-12-29T04:20:22;10.30;99.90
19152;DHT22;9708;53.114;9.388;2022-12-29T04:23:06;10.30;99.90
19152;DHT22;9708;53.114;9.388;2022-12-29T04:25:33;10.30;99.90
19152;DHT22;9708;53.114;9.388;2022-12-29T04:28:00;10.30;99.90
19152;DHT22;9708;53.114;9.388;2022-12-29T04:30:27;10.30;99.90
19152;DHT22;9708;53.114;9.388;2022-12-29T04:32:56;10.20;99.90
19152;DHT22;9708;53.114;9.388;2022-12-29T04:35:22;10.30;99.90
19152;DHT22;9708;53.114;9.388;2022-12-29T04:37:49;10.30;99.90
19152;DHT22;9708;53.114;9.388;2022-12-29T04:40:16;10.30;99.90
19152;DHT22;9708;53.114;9.388;2022-12-29T04:42:43;10.30;99.90
19152;DHT22;9708;53.114;9.388;2022-12-29T04:45:12;10.30;99.90
19152;DHT22;9708;53.114;9.388;2022-12-29T04:47:39;10.30;99.90
19152;DHT22;9708;53.114;9.388;2022-12-29T04:50:08;10.30;99.90
19152;DHT22;9708;53.114;9.388;2022-12-29T04:52:35;10.40;99.90
19152;DHT22;9708;53.114;9.388;2022-12-29T04:55:02;10.30;99.90
19152;DHT22;9708;53.114;9.388;2022-12-29T04:57:29;10.30;99.90
19152;DHT22;9708;53.114;9.388;2022-12-29T04:59:56;10.30;99.90
19152;DHT22;9708;53.114;9.388;2022-12-29T05:02:23;10.30;99.90
19152;DHT22;9708;53.114;9.388;2022-12-29T05:04:49;10.30;99.90
19152;DHT22;9708;53.114;9.388;2022-12-29T05:07:18;10.40;99.90
19152;DHT22;9708;53.114;9.388;2022-12-29T05:09:45;10.40;99.90
19152;DHT22;9708;53.114;9.388;2022-12-29T05:12:11;10.50;99.90
19152;DHT22;9708;53.114;9.388;2022-12-29T05:14:38;10.40;99.90
19152;DHT22;9708;53.114;9.388;2022-12-29T05:17:05;10.40;99.90
19152;DHT22;9708;53.114;9.388;2022-12-29T05:19:32;10.40;99.90
19152;DHT22;9708;53.114;9.388;2022-12-29T05:21:58;10.40;99.90
19152;DHT22;9708;53.114;9.388;2022-12-29T05:24:26;10.40;99.90
19152;DHT22;9708;53.114;9.388;2022-12-29T05:26:53;10.50;99.90
19152;DHT22;9708;53.114;9.388;2022-12-29T05:29:20;10.50;99.90
19152;DHT22;9708;53.114;9.388;2022-12-29T05:31:47;10.50;99.90
19152;DHT22;9708;53.114;9.388;2022-12-29T05:34:14;10.50;99.90
19152;DHT22;9708;53.114;9.388;2022-12-29T05:36:41;10.50;99.90
19152;DHT22;9708;53.114;9.388;2022-12-29T05:39:07;10.40;99.90
19152;DHT22;9708;53.114;9.388;2022-12-29T05:41:35;10.40;99.90
19152;DHT22;9708;53.114;9.388;2022-12-29T05:44:02;10.40;99.90
19152;DHT22;9708;53.114;9.388;2022-12-29T05:46:30;10.40;99.90
19152;DHT22;9708;53.114;9.388;2022-12-29T05:48:56;10.40;99.90
19152;DHT22;9708;53.114;9.388;2022-12-29T05:51:23;10.40;99.90
19152;DHT22;9708;53.114;9.388;2022-12-29T05:53:50;10.40;99.90
19152;DHT22;9708;53.114;9.388;2022-12-29T05:56:17;10.40;99.90
19152;DHT22;9708;53.114;9.388;2022-12-29T05:58:45;10.40;99.90
19152;DHT22;9708;53.114;9.388;2022-12-29T06:01:11;10.40;99.90
19152;DHT22;9708;53.114;9.388;2022-12-29T06:03:38;10.50;99.90
19152;DHT22;9708;53.114;9.388;2022-12-29T06:06:05;10.50;99.90
19152;DHT22;9708;53.114;9.388;2022-12-29T06:08:32;10.60;99.90
19152;DHT22;9708;53.114;9.388;2022-12-29T06:10:59;10.60;99.90
19152;DHT22;9708;53.114;9.388;2022-12-29T06:13:26;10.60;99.90
19152;DHT22;9708;53.114;9.388;2022-12-29T06:15:54;10.70;99.90
19152;DHT22;9708;53.114;9.388;2022-12-29T06:18:20;10.80;99.90
19152;DHT22;9708;53.114;9.388;2022-12-29T06:20:47;10.80;99.90
19152;DHT22;9708;53.114;9.388;2022-12-29T06:23:15;10.90;99.90
19152;DHT22;9708;53.114;9.388;2022-12-29T06:25:42;10.90;99.90
19152;DHT22;9708;53.114;9.388;2022-12-29T06:28:08;10.90;99.90
19152;DHT22;9708;53.114;9.388;2022-12-29T06:30:36;10.90;99.90
19152;DHT22;9708;53.114;9.388;2022-12-29T06:33:04;10.80;99.90
19152;DHT22;9708;53.114;9.388;2022-12-29T06:35:33;10.80;99.90
19152;DHT22;9708;53.114;9.388;2022-12-29T06:38:00;10.70;99.90
19152;DHT22;9708;53.114;9.388;2022-12-29T06:40:27;10.70;99.90
19152;DHT22;9708;53.114;9.388;2022-12-29T06:42:53;10.70;99.90
19152;DHT22;9708;53.114;9.388;2022-12-29T06:45:20;10.70;99.90
19152;DHT22;9708;53.114;9.388;2022-12-29T06:47:47;10.70;99.90
19152;DHT22;9708;53.114;9.388;2022-12-29T06:50:15;10.60;99.90
19152;DHT22;9708;53.114;9.388;2022-12-29T06:52:42;10.60;99.90
19152;DHT22;9708;53.114;9.388;2022-12-29T06:55:09;10.60;99.90
19152;DHT22;9708;53.114;9.388;2022-12-29T06:57:35;10.50;99.90
19152;DHT22;9708;53.114;9.388;2022-12-29T07:00:03;10.50;99.90
19152;DHT22;9708;53.114;9.388;2022-12-29T07:02:30;10.50;99.90
19152;DHT22;9708;53.114;9.388;2022-12-29T07:05:34;10.50;99.90
19152;DHT22;9708;53.114;9.388;2022-12-29T07:08:01;10.40;99.90
19152;DHT22;9708;53.114;9.388;2022-12-29T07:10:28;10.40;99.90
19152;DHT22;9708;53.114;9.388;2022-12-29T07:12:54;10.40;99.90
19152;DHT22;9708;53.114;9.388;2022-12-29T07:15:21;10.40;99.90
19152;DHT22;9708;53.114;9.388;2022-12-29T07:17:48;10.30;99.90
19152;DHT22;9708;53.114;9.388;2022-12-29T07:20:16;10.30;99.90
19152;DHT22;9708;53.114;9.388;2022-12-29T07:22:44;10.30;99.90
19152;DHT22;9708;53.114;9.388;2022-12-29T07:25:12;10.30;99.90
19152;DHT22;9708;53.114;9.388;2022-12-29T07:27:39;10.30;99.90
19152;DHT22;9708;53.114;9.388;2022-12-29T07:30:06;10.30;99.90
19152;DHT22;9708;53.114;9.388;2022-12-29T07:32:33;10.30;99.90
19152;DHT22;9708;53.114;9.388;2022-12-29T07:35:00;10.20;99.90
19152;DHT22;9708;53.114;9.388;2022-12-29T07:37:27;10.20;99.90
19152;DHT22;9708;53.114;9.388;2022-12-29T07:39:55;10.10;99.90
19152;DHT22;9708;53.114;9.388;2022-12-29T07:42:22;10.10;99.90
19152;DHT22;9708;53.114;9.388;2022-12-29T07:44:49;10.10;99.90
19152;DHT22;9708;53.114;9.388;2022-12-29T07:47:15;10.10;99.90
19152;DHT22;9708;53.114;9.388;2022-12-29T07:49:43;10.00;99.90
19152;DHT22;9708;53.114;9.388;2022-12-29T07:52:09;9.90;99.90
19152;DHT22;9708;53.114;9.388;2022-12-29T07:54:36;9.90;99.90
19152;DHT22;9708;53.114;9.388;2022-12-29T07:57:04;9.90;99.90
19152;DHT22;9708;53.114;9.388;2022-12-29T07:59:31;9.90;99.90
19152;DHT22;9708;53.114;9.388;2022-12-29T08:01:58;9.90;99.90
19152;DHT22;9708;53.114;9.388;2022-12-29T08:04:25;9.90;99.90
19152;DHT22;9708;53.114;9.388;2022-12-29T08:06:51;9.90;99.90
19152;DHT22;9708;53.114;9.388;2022-12-29T08:09:18;9.90;99.90
19152;DHT22;9708;53.114;9.388;2022-12-29T08:11:45;10.00;99.90
19152;DHT22;9708;53.114;9.388;2022-12-29T08:14:13;10.00;99.90
19152;DHT22;9708;53.114;9.388;2022-12-29T08:16:40;10.10;99.90
19152;DHT22;9708;53.114;9.388;2022-12-29T08:19:07;10.00;99.90
19152;DHT22;9708;53.114;9.388;2022-12-29T08:21:33;10.10;99.90
19152;DHT22;9708;53.114;9.388;2022-12-29T08:24:00;10.10;99.90
19152;DHT22;9708;53.114;9.388;2022-12-29T08:26:27;10.10;99.90
19152;DHT22;9708;53.114;9.388;2022-12-29T08:28:54;10.10;99.90
19152;DHT22;9708;53.114;9.388;2022-12-29T08:31:23;10.00;99.90
19152;DHT22;9708;53.114;9.388;2022-12-29T08:33:50;10.00;99.90
19152;DHT22;9708;53.114;9.388;2022-12-29T08:36:17;9.90;99.90
19152;DHT22;9708;53.114;9.388;2022-12-29T08:38:43;9.90;99.90
19152;DHT22;9708;53.114;9.388;2022-12-29T08:41:10;9.90;99.90
19152;DHT22;9708;53.114;9.388;2022-12-29T08:43:37;9.80;99.90
19152;DHT22;9708;53.114;9.388;2022-12-29T08:46:04;9.80;99.90
19152;DHT22;9708;53.114;9.388;2022-12-29T08:48:32;9.80;99.90
19152;DHT22;9708;53.114;9.388;2022-12-29T08:50:59;9.80;99.90
19152;DHT22;9708;53.114;9.388;2022-12-29T08:53:26;9.80;99.90
19152;DHT22;9708;53.114;9.388;2022-12-29T08:55:57;9.80;99.90
19152;DHT22;9708;53.114;9.388;2022-12-29T08:58:25;9.80;99.90
19152;DHT22;9708;53.114;9.388;2022-12-29T09:00:52;9.80;99.90
19152;DHT22;9708;53.114;9.388;2022-12-29T09:03:19;9.90;99.90
19152;DHT22;9708;53.114;9.388;2022-12-29T09:05:49;9.90;99.90
19152;DHT22;9708;53.114;9.388;2022-12-29T09:08:16;10.00;99.90
19152;DHT22;9708;53.114;9.388;2022-12-29T09:10:43;10.00;99.90
19152;DHT22;9708;53.114;9.388;2022-12-29T09:13:10;10.00;99.90
19152;DHT22;9708;53.114;9.388;2022-12-29T09:15:37;10.10;99.90
19152;DHT22;9708;53.114;9.388;2022-12-29T09:18:04;10.20;99.90
19152;DHT22;9708;53.114;9.388;2022-12-29T09:20:31;10.20;99.90
19152;DHT22;9708;53.114;9.388;2022-12-29T09:22:59;10.30;99.90
19152;DHT22;9708;53.114;9.388;2022-12-29T09:25:26;10.40;99.90
19152;DHT22;9708;53.114;9.388;2022-12-29T09:27:53;10.60;99.90
19152;DHT22;9708;53.114;9.388;2022-12-29T09:30:21;10.80;99.90
19152;DHT22;9708;53.114;9.388;2022-12-29T09:32:49;10.80;99.90
19152;DHT22;9708;53.114;9.388;2022-12-29T09:35:16;10.90;99.90
19152;DHT22;9708;53.114;9.388;2022-12-29T09:37:43;11.00;99.90
19152;DHT22;9708;53.114;9.388;2022-12-29T09:40:22;11.10;99.90
19152;DHT22;9708;53.114;9.388;2022-12-29T09:43:00;11.20;99.90
19152;DHT22;9708;53.114;9.388;2022-12-29T09:45:34;11.30;99.90
19152;DHT22;9708;53.114;9.388;2022-12-29T09:48:03;11.70;99.90
19152;DHT22;9708;53.114;9.388;2022-12-29T09:50:33;12.20;99.90
19152;DHT22;9708;53.114;9.388;2022-12-29T09:53:05;13.00;99.90
19152;DHT22;9708;53.114;9.388;2022-12-29T09:55:39;13.30;99.90
19152;DHT22;9708;53.114;9.388;2022-12-29T09:58:13;13.50;99.90
19152;DHT22;9708;53.114;9.388;2022-12-29T10:00:48;13.50;99.90
19152;DHT22;9708;53.114;9.388;2022-12-29T10:03:18;13.00;99.90
19152;DHT22;9708;53.114;9.388;2022-12-29T10:05:49;13.00;99.90
19152;DHT22;9708;53.114;9.388;2022-12-29T10:08:25;13.10;99.90
19152;DHT22;9708;53.114;9.388;2022-12-29T10:10:56;13.50;99.90
19152;DHT22;9708;53.114;9.388;2022-12-29T10:13:35;13.20;99.90
19152;DHT22;9708;53.114;9.388;2022-12-29T10:16:09;12.50;99.90
19152;DHT22;9708;53.114;9.388;2022-12-29T10:21:43;12.30;99.90
19152;DHT22;9708;53.114;9.388;2022-12-29T10:24:14;12.10;99.90
19152;DHT22;9708;53.114;9.388;2022-12-29T10:26:43;12.10;99.90
19152;DHT22;9708;53.114;9.388;2022-12-29T10:29:15;11.80;99.90
19152;DHT22;9708;53.114;9.388;2022-12-29T10:31:44;11.60;99.90
19152;DHT22;9708;53.114;9.388;2022-12-29T10:34:17;11.40;99.90
19152;DHT22;9708;53.114;9.388;2022-12-29T10:36:47;11.20;99.90
19152;DHT22;9708;53.114;9.388;2022-12-29T10:39:21;11.10;99.90
19152;DHT22;9708;53.114;9.388;2022-12-29T10:41:53;10.90;99.90
19152;DHT22;9708;53.114;9.388;2022-12-29T10:44:22;10.80;99.90
19152;DHT22;9708;53.114;9.388;2022-12-29T10:46:55;10.60;99.90
19152;DHT22;9708;53.114;9.388;2022-12-29T10:49:23;10.30;99.90
19152;DHT22;9708;53.114;9.388;2022-12-29T10:51:55;10.20;99.90
19152;DHT22;9708;53.114;9.388;2022-12-29T10:54:27;10.00;99.90
19152;DHT22;9708;53.114;9.388;2022-12-29T10:57:00;9.90;99.90
19152;DHT22;9708;53.114;9.388;2022-12-29T10:59:30;9.70;99.90
19152;DHT22;9708;53.114;9.388;2022-12-29T11:02:01;9.80;99.90
19152;DHT22;9708;53.114;9.388;2022-12-29T11:04:40;9.90;99.90
19152;DHT22;9708;53.114;9.388;2022-12-29T11:07:10;10.60;99.90
19152;DHT22;9708;53.114;9.388;2022-12-29T11:09:38;10.80;99.90
19152;DHT22;9708;53.114;9.388;2022-12-29T11:12:20;10.70;99.90
19152;DHT22;9708;53.114;9.388;2022-12-29T11:14:48;10.50;99.90
19152;DHT22;9708;53.114;9.388;2022-12-29T11:17:26;10.50;99.90
19152;DHT22;9708;53.114;9.388;2022-12-29T11:19:53;10.50;99.90
19152;DHT22;9708;53.114;9.388;2022-12-29T11:22:23;10.60;99.90
19152;DHT22;9708;53.114;9.388;2022-12-29T11:24:51;10.60;99.90
19152;DHT22;9708;53.114;9.388;2022-12-29T11:27:22;10.70;99.90
19152;DHT22;9708;53.114;9.388;2022-12-29T11:29:50;10.70;99.90
19152;DHT22;9708;53.114;9.388;2022-12-29T11:32:19;10.70;99.90
19152;DHT22;9708;53.114;9.388;2022-12-29T11:34:46;10.70;99.90
19152;DHT22;9708;53.114;9.388;2022-12-29T11:37:16;10.80;99.90
19152;DHT22;9708;53.114;9.388;2022-12-29T11:39:50;11.10;99.90
19152;DHT22;9708;53.114;9.388;2022-12-29T11:42:21;11.70;99.90
19152;DHT22;9708;53.114;9.388;2022-12-29T11:44:50;12.20;99.90
19152;DHT22;9708;53.114;9.388;2022-12-29T11:47:25;12.20;99.90
19152;DHT22;9708;53.114;9.388;2022-12-29T11:49:55;11.90;99.90
19152;DHT22;9708;53.114;9.388;2022-12-29T11:52:25;11.70;99.90
19152;DHT22;9708;53.114;9.388;2022-12-29T11:54:54;11.70;99.90
19152;DHT22;9708;53.114;9.388;2022-12-29T11:57:24;11.50;99.90
19152;DHT22;9708;53.114;9.388;2022-12-29T11:59:52;11.40;99.90
19152;DHT22;9708;53.114;9.388;2022-12-29T12:02:40;11.40;99.90
19152;DHT22;9708;53.114;9.388;2022-12-29T12:05:24;11.30;99.90
19152;DHT22;9708;53.114;9.388;2022-12-29T12:08:01;11.50;99.90
19152;DHT22;9708;53.114;9.388;2022-12-29T12:10:33;11.40;99.90
19152;DHT22;9708;53.114;9.388;2022-12-29T12:13:11;11.40;99.90
19152;DHT22;9708;53.114;9.388;2022-12-29T12:15:46;11.40;99.90
19152;DHT22;9708;53.114;9.388;2022-12-29T12:18:18;11.30;99.90
19152;DHT22;9708;53.114;9.388;2022-12-29T12:20:51;11.30;99.90
19152;DHT22;9708;53.114;9.388;2022-12-29T12:23:33;11.20;99.90
19152;DHT22;9708;53.114;9.388;2022-12-29T12:26:08;11.20;99.90
19152;DHT22;9708;53.114;9.388;2022-12-29T12:28:44;11.20;99.90
19152;DHT22;9708;53.114;9.388;2022-12-29T12:31:18;11.20;99.90
19152;DHT22;9708;53.114;9.388;2022-12-29T12:33:50;11.10;99.90
19152;DHT22;9708;53.114;9.388;2022-12-29T12:39:22;11.10;99.90
19152;DHT22;9708;53.114;9.388;2022-12-29T12:41:59;10.90;99.90
19152;DHT22;9708;53.114;9.388;2022-12-29T12:44:36;10.90;99.90
19152;DHT22;9708;53.114;9.388;2022-12-29T12:47:22;11.10;99.90
19152;DHT22;9708;53.114;9.388;2022-12-29T12:50:36;11.10;99.90
19152;DHT22;9708;53.114;9.388;2022-12-29T12:53:25;11.10;99.90
19152;DHT22;9708;53.114;9.388;2022-12-29T12:56:16;11.10;99.90
19152;DHT22;9708;53.114;9.388;2022-12-29T12:58:53;11.00;99.90
19152;DHT22;9708;53.114;9.388;2022-12-29T13:01:37;10.90;99.90
19152;DHT22;9708;53.114;9.388;2022-12-29T13:04:35;10.80;99.90
19152;DHT22;9708;53.114;9.388;2022-12-29T13:07:13;10.80;99.90
19152;DHT22;9708;53.114;9.388;2022-12-29T13:09:51;10.80;99.90
19152;DHT22;9708;53.114;9.388;2022-12-29T13:12:27;10.60;99.90
19152;DHT22;9708;53.114;9.388;2022-12-29T13:15:06;10.60;99.90
19152;DHT22;9708;53.114;9.388;2022-12-29T13:17:42;10.70;99.90
19152;DHT22;9708;53.114;9.388;2022-12-29T13:20:20;10.70;99.90
19152;DHT22;9708;53.114;9.388;2022-12-29T13:22:55;10.60;99.90
19152;DHT22;9708;53.114;9.388;2022-12-29T13:25:32;10.60;99.90
19152;DHT22;9708;53.114;9.388;2022-12-29T13:28:06;10.60;99.90
19152;DHT22;9708;53.114;9.388;2022-12-29T13:30:43;10.60;99.90
19152;DHT22;9708;53.114;9.388;2022-12-29T13:33:20;10.60;99.90
19152;DHT22;9708;53.114;9.388;2022-12-29T13:35:59;10.60;99.90
19152;DHT22;9708;53.114;9.388;2022-12-29T13:38:32;10.60;99.90
19152;DHT22;9708;53.114;9.388;2022-12-29T13:41:04;10.60;99.90
19152;DHT22;9708;53.114;9.388;2022-12-29T13:43:35;10.60;99.90
19152;DHT22;9708;53.114;9.388;2022-12-29T13:46:10;10.50;99.90
19152;DHT22;9708;53.114;9.388;2022-12-29T13:48:44;10.30;99.90
19152;DHT22;9708;53.114;9.388;2022-12-29T13:51:13;10.30;99.90
19152;DHT22;9708;53.114;9.388;2022-12-29T13:54:00;10.30;99.90
19152;DHT22;9708;53.114;9.388;2022-12-29T13:56:35;10.20;99.90
19152;DHT22;9708;53.114;9.388;2022-12-29T13:59:08;10.20;99.90
19152;DHT22;9708;53.114;9.388;2022-12-29T14:01:40;10.10;99.90
19152;DHT22;9708;53.114;9.388;2022-12-29T14:04:12;10.10;99.90
19152;DHT22;9708;53.114;9.388;2022-12-29T14:06:39;10.10;99.90
19152;DHT22;9708;53.114;9.388;2022-12-29T14:09:36;10.00;99.90
19152;DHT22;9708;53.114;9.388;2022-12-29T14:12:27;10.00;99.90
19152;DHT22;9708;53.114;9.388;2022-12-29T14:15:05;10.10;99.90
19152;DHT22;9708;53.114;9.388;2022-12-29T14:17:33;9.90;99.90
19152;DHT22;9708;53.114;9.388;2022-12-29T14:20:02;9.80;99.90
19152;DHT22;9708;53.114;9.388;2022-12-29T14:22:30;9.80;99.90
19152;DHT22;9708;53.114;9.388;2022-12-29T14:24:57;9.70;99.90
19152;DHT22;9708;53.114;9.388;2022-12-29T14:27:44;9.60;99.90
19152;DHT22;9708;53.114;9.388;2022-12-29T14:30:45;9.60;99.90
19152;DHT22;9708;53.114;9.388;2022-12-29T14:33:13;9.60;99.90
19152;DHT22;9708;53.114;9.388;2022-12-29T14:35:43;9.60;99.90
19152;DHT22;9708;53.114;9.388;2022-12-29T14:38:23;9.50;99.90
19152;DHT22;9708;53.114;9.388;2022-12-29T14:40:52;9.50;99.90
19152;DHT22;9708;53.114;9.388;2022-12-29T14:43:26;9.50;99.90
19152;DHT22;9708;53.114;9.388;2022-12-29T14:45:56;9.40;99.90
19152;DHT22;9708;53.114;9.388;2022-12-29T14:48:35;9.40;99.90
19152;DHT22;9708;53.114;9.388;2022-12-29T14:51:25;9.30;99.90
19152;DHT22;9708;53.114;9.388;2022-12-29T14:53:53;9.30;99.90
19152;DHT22;9708;53.114;9.388;2022-12-29T14:56:25;9.30;99.90
19152;DHT22;9708;53.114;9.388;2022-12-29T14:58:54;9.30;99.90
19152;DHT22;9708;53.114;9.388;2022-12-29T15:01:31;9.30;99.90
19152;DHT22;9708;53.114;9.388;2022-12-29T15:04:06;9.30;99.90
19152;DHT22;9708;53.114;9.388;2022-12-29T15:06:41;9.20;99.90
19152;DHT22;9708;53.114;9.388;2022-12-29T15:09:19;9.20;99.90
19152;DHT22;9708;53.114;9.388;2022-12-29T15:11:51;9.20;99.90
19152;DHT22;9708;53.114;9.388;2022-12-29T15:14:33;9.30;99.90
19152;DHT22;9708;53.114;9.388;2022-12-29T15:17:01;9.20;99.90
19152;DHT22;9708;53.114;9.388;2022-12-29T15:19:28;9.30;99.90
19152;DHT22;9708;53.114;9.388;2022-12-29T15:21:56;9.30;99.90
19152;DHT22;9708;53.114;9.388;2022-12-29T15:24:24;9.30;99.90
19152;DHT22;9708;53.114;9.388;2022-12-29T15:26:52;9.30;99.90
19152;DHT22;9708;53.114;9.388;2022-12-29T15:29:39;9.30;99.90
19152;DHT22;9708;53.114;9.388;2022-12-29T15:32:21;9.30;99.90
19152;DHT22;9708;53.114;9.388;2022-12-29T15:34:49;9.30;99.90
19152;DHT22;9708;53.114;9.388;2022-12-29T15:37:23;9.30;99.90
19152;DHT22;9708;53.114;9.388;2022-12-29T15:39:51;9.20;99.90
19152;DHT22;9708;53.114;9.388;2022-12-29T15:42:39;9.20;99.90
19152;DHT22;9708;53.114;9.388;2022-12-29T15:45:11;9.20;99.90
19152;DHT22;9708;53.114;9.388;2022-12-29T15:47:40;9.20;99.90
19152;DHT22;9708;53.114;9.388;2022-12-29T15:50:15;9.20;99.90
19152;DHT22;9708;53.114;9.388;2022-12-29T15:52:45;9.30;99.90
19152;DHT22;9708;53.114;9.388;2022-12-29T15:55:24;9.30;99.90
19152;DHT22;9708;53.114;9.388;2022-12-29T15:57:56;9.30;99.90
19152;DHT22;9708;53.114;9.388;2022-12-29T16:00:25;9.30;99.90
19152;DHT22;9708;53.114;9.388;2022-12-29T16:02:54;9.30;99.90
19152;DHT22;9708;53.114;9.388;2022-12-29T16:05:22;9.30;99.90
19152;DHT22;9708;53.114;9.388;2022-12-29T16:07:54;9.30;99.90
19152;DHT22;9708;53.114;9.388;2022-12-29T16:10:26;9.40;99.90
19152;DHT22;9708;53.114;9.388;2022-12-29T16:13:04;9.40;99.90
19152;DHT22;9708;53.114;9.388;2022-12-29T16:15:32;9.40;99.90
19152;DHT22;9708;53.114;9.388;2022-12-29T16:17:59;9.30;99.90
19152;DHT22;9708;53.114;9.388;2022-12-29T16:20:35;9.30;99.90
19152;DHT22;9708;53.114;9.388;2022-12-29T16:23:05;9.30;99.90
19152;DHT22;9708;53.114;9.388;2022-12-29T16:25:41;9.20;99.90
19152;DHT22;9708;53.114;9.388;2022-12-29T16:28:16;9.10;99.90
19152;DHT22;9708;53.114;9.388;2022-12-29T16:30:44;8.90;99.90
19152;DHT22;9708;53.114;9.388;2022-12-29T16:33:39;8.90;99.90
19152;DHT22;9708;53.114;9.388;2022-12-29T16:36:23;8.80;99.90
19152;DHT22;9708;53.114;9.388;2022-12-29T16:39:05;8.80;99.90
19152;DHT22;9708;53.114;9.388;2022-12-29T16:41:36;8.70;99.90
19152;DHT22;9708;53.114;9.388;2022-12-29T16:44:15;8.70;99.90
19152;DHT22;9708;53.114;9.388;2022-12-29T16:46:55;8.60;99.90
19152;DHT22;9708;53.114;9.388;2022-12-29T16:49:24;8.60;99.90
19152;DHT22;9708;53.114;9.388;2022-12-29T16:51:51;8.60;99.90
19152;DHT22;9708;53.114;9.388;2022-12-29T16:54:23;8.60;99.90
19152;DHT22;9708;53.114;9.388;2022-12-29T16:56:52;8.60;99.90
19152;DHT22;9708;53.114;9.388;2022-12-29T16:59:27;8.60;99.90
19152;DHT22;9708;53.114;9.388;2022-12-29T17:01:58;8.70;99.90
19152;DHT22;9708;53.114;9.388;2022-12-29T17:04:26;8.70;99.90
19152;DHT22;9708;53.114;9.388;2022-12-29T17:06:55;8.70;99.90
19152;DHT22;9708;53.114;9.388;2022-12-29T17:09:25;8.80;99.90
19152;DHT22;9708;53.114;9.388;2022-12-29T17:11:54;8.90;99.90
19152;DHT22;9708;53.114;9.388;2022-12-29T17:14:31;8.90;99.90
19152;DHT22;9708;53.114;9.388;2022-12-29T17:16:59;8.90;99.90
19152;DHT22;9708;53.114;9.388;2022-12-29T17:19:29;9.00;99.90
19152;DHT22;9708;53.114;9.388;2022-12-29T17:21:57;9.00;99.90
19152;DHT22;9708;53.114;9.388;2022-12-29T17:24:25;9.00;99.90
19152;DHT22;9708;53.114;9.388;2022-12-29T17:26:54;9.00;99.90
19152;DHT22;9708;53.114;9.388;2022-12-29T17:29:27;9.00;99.90
19152;DHT22;9708;53.114;9.388;2022-12-29T17:31:55;9.00;99.90
19152;DHT22;9708;53.114;9.388;2022-12-29T17:34:22;8.90;99.90
19152;DHT22;9708;53.114;9.388;2022-12-29T17:36:49;8.90;99.90
19152;DHT22;9708;53.114;9.388;2022-12-29T17:39:16;8.90;99.90
19152;DHT22;9708;53.114;9.388;2022-12-29T17:41:45;8.90;99.90
19152;DHT22;9708;53.114;9.388;2022-12-29T17:44:15;8.90;99.90
19152;DHT22;9708;53.114;9.388;2022-12-29T17:46:43;8.90;99.90
19152;DHT22;9708;53.114;9.388;2022-12-29T17:49:11;8.90;99.90
19152;DHT22;9708;53.114;9.388;2022-12-29T17:51:39;8.90;99.90
19152;DHT22;9708;53.114;9.388;2022-12-29T17:54:14;8.90;99.90
19152;DHT22;9708;53.114;9.388;2022-12-29T17:56:44;8.90;99.90
19152;DHT22;9708;53.114;9.388;2022-12-29T17:59:12;8.90;99.90
19152;DHT22;9708;53.114;9.388;2022-12-29T18:01:39;8.90;99.90
19152;DHT22;9708;53.114;9.388;2022-12-29T18:04:07;9.00;99.90
19152;DHT22;9708;53.114;9.388;2022-12-29T18:06:35;9.00;99.90
19152;DHT22;9708;53.114;9.388;2022-12-29T18:09:02;9.00;99.90
19152;DHT22;9708;53.114;9.388;2022-12-29T18:11:33;9.00;99.90
19152;DHT22;9708;53.114;9.388;2022-12-29T18:14:02;9.10;99.90
19152;DHT22;9708;53.114;9.388;2022-12-29T18:16:28;9.10;99.90
19152;DHT22;9708;53.114;9.388;2022-12-29T18:18:55;9.20;99.90
19152;DHT22;9708;53.114;9.388;2022-12-29T18:21:23;9.20;99.90
19152;DHT22;9708;53.114;9.388;2022-12-29T18:23:50;9.30;99.90
19152;DHT22;9708;53.114;9.388;2022-12-29T18:26:19;9.30;99.90
19152;DHT22;9708;53.114;9.388;2022-12-29T18:28:48;9.30;99.90
19152;DHT22;9708;53.114;9.388;2022-12-29T18:31:19;9.30;99.90
19152;DHT22;9708;53.114;9.388;2022-12-29T18:33:47;9.30;99.90
19152;DHT22;9708;53.114;9.388;2022-12-29T18:36:15;9.30;99.90
19152;DHT22;9708;53.114;9.388;2022-12-29T18:38:42;9.30;99.90
19152;DHT22;9708;53.114;9.388;2022-12-29T18:41:15;9.30;99.90
19152;DHT22;9708;53.114;9.388;2022-12-29T18:43:42;9.40;99.90
19152;DHT22;9708;53.114;9.388;2022-12-29T18:46:09;9.40;99.90
19152;DHT22;9708;53.114;9.388;2022-12-29T18:48:38;9.30;99.90
19152;DHT22;9708;53.114;9.388;2022-12-29T18:51:05;9.30;99.90
19152;DHT22;9708;53.114;9.388;2022-12-29T18:53:32;9.30;99.90
19152;DHT22;9708;53.114;9.388;2022-12-29T18:56:02;9.20;99.90
19152;DHT22;9708;53.114;9.388;2022-12-29T18:58:28;9.10;99.90
19152;DHT22;9708;53.114;9.388;2022-12-29T19:00:55;9.00;99.90
19152;DHT22;9708;53.114;9.388;2022-12-29T19:03:22;9.00;99.90
19152;DHT22;9708;53.114;9.388;2022-12-29T19:05:50;8.80;99.90
19152;DHT22;9708;53.114;9.388;2022-12-29T19:08:17;8.80;99.90
19152;DHT22;9708;53.114;9.388;2022-12-29T19:10:44;8.70;99.90
19152;DHT22;9708;53.114;9.388;2022-12-29T19:13:15;8.60;99.90
19152;DHT22;9708;53.114;9.388;2022-12-29T19:15:43;8.50;99.90
19152;DHT22;9708;53.114;9.388;2022-12-29T19:18:16;8.50;99.90
19152;DHT22;9708;53.114;9.388;2022-12-29T19:20:44;8.40;99.90
19152;DHT22;9708;53.114;9.388;2022-12-29T19:23:14;8.40;99.90
19152;DHT22;9708;53.114;9.388;2022-12-29T19:25:42;8.40;99.90
19152;DHT22;9708;53.114;9.388;2022-12-29T19:28:15;8.30;99.90
19152;DHT22;9708;53.114;9.388;2022-12-29T19:30:43;8.30;99.90
19152;DHT22;9708;53.114;9.388;2022-12-29T19:33:09;8.30;99.90
19152;DHT22;9708;53.114;9.388;2022-12-29T19:35:36;8.30;99.90
19152;DHT22;9708;53.114;9.388;2022-12-29T19:38:03;8.30;99.90
19152;DHT22;9708;53.114;9.388;2022-12-29T19:40:32;8.30;99.90
19152;DHT22;9708;53.114;9.388;2022-12-29T19:42:59;8.30;99.90
19152;DHT22;9708;53.114;9.388;2022-12-29T19:45:25;8.30;99.90
19152;DHT22;9708;53.114;9.388;2022-12-29T19:47:52;8.30;99.90
19152;DHT22;9708;53.114;9.388;2022-12-29T19:50:20;8.30;99.90
19152;DHT22;9708;53.114;9.388;2022-12-29T19:52:46;8.30;99.90
19152;DHT22;9708;53.114;9.388;2022-12-29T19:55:15;8.30;99.90
19152;DHT22;9708;53.114;9.388;2022-12-29T19:57:43;8.30;99.90
19152;DHT22;9708;53.114;9.388;2022-12-29T20:00:11;8.30;99.90
19152;DHT22;9708;53.114;9.388;2022-12-29T20:02:39;8.40;99.90